Terminal Aerodrome Forecast
Issued by NWS

Home | Current Version | Previous Version | Text Only | Print | Product List | Glossary Off
Versions: 1 2 3 4 5 6 7 8 9 10 11 12 13 14 15

355
FTUS43 KBIS 182108 AAA
TAFJMS
TAF AMD
KJMS 182108Z 1821/1918 29018G26KT P6SM SKC
     FM190000 27012KT P6SM FEW200
     FM190300 25008KT P6SM SKC
     FM191000 19005KT P6SM FEW200 WS020/22030KT
     FM191400 18007KT P6SM FEW150=

USA.gov is the U.S. government's official web portal to all federal, state and local government web resources and services.